createdAt,value
2017-08-08T00:00:37.421Z,19.70
2017-08-08T00:03:06.155Z,19.70
2017-08-08T00:05:35.048Z,19.70
2017-08-08T00:08:03.937Z,19.70
2017-08-08T00:10:32.622Z,19.70
2017-08-08T00:13:02.028Z,19.60
2017-08-08T00:15:30.710Z,19.60
2017-08-08T00:17:59.395Z,19.60
2017-08-08T00:20:28.078Z,19.60
2017-08-08T00:22:56.970Z,19.60
2017-08-08T00:25:25.666Z,19.60
2017-08-08T00:27:54.340Z,19.50
2017-08-08T00:30:23.024Z,19.50
2017-08-08T00:32:51.672Z,19.50
2017-08-08T00:35:20.398Z,19.50
2017-08-08T00:37:55.020Z,19.50
2017-08-08T00:40:23.669Z,19.40
2017-08-08T00:42:52.391Z,19.40
2017-08-08T00:45:21.078Z,19.40
2017-08-08T00:47:49.764Z,19.40
2017-08-08T00:50:18.458Z,19.30
2017-08-08T00:52:48.158Z,19.30
2017-08-08T00:55:16.844Z,19.30
2017-08-08T00:57:45.530Z,19.30
2017-08-08T01:00:14.218Z,19.30
2017-08-08T01:02:42.902Z,19.20
2017-08-08T01:05:11.590Z,19.20
2017-08-08T01:07:40.476Z,19.20
2017-08-08T01:10:09.335Z,19.20
2017-08-08T01:12:39.076Z,19.10
2017-08-08T01:15:07.763Z,19.10
2017-08-08T01:17:36.446Z,19.10
2017-08-08T01:20:05.130Z,19.10
2017-08-08T01:22:33.816Z,19.10
2017-08-08T01:25:02.501Z,19.10
2017-08-08T01:27:31.599Z,19.00
2017-08-08T01:30:00.286Z,19.00
2017-08-08T01:32:29.958Z,19.00
2017-08-08T01:34:58.805Z,19.00
2017-08-08T01:37:27.530Z,18.90
2017-08-08T01:39:56.464Z,18.90
2017-08-08T01:42:25.148Z,18.90
2017-08-08T01:44:54.039Z,18.90
2017-08-08T01:47:22.723Z,18.90
2017-08-08T01:49:51.613Z,18.80
2017-08-08T01:52:20.502Z,18.80
2017-08-08T01:54:49.391Z,18.80
2017-08-08T01:57:18.291Z,18.80
2017-08-08T01:59:47.179Z,18.80
2017-08-08T02:02:16.062Z,18.80
2017-08-08T02:04:44.757Z,18.70
2017-08-08T02:07:13.432Z,18.70
2017-08-08T02:09:42.731Z,18.70
2017-08-08T02:12:11.419Z,18.70
2017-08-08T02:14:40.311Z,18.60
2017-08-08T02:17:08.956Z,18.60
2017-08-08T02:19:37.680Z,18.60
2017-08-08T02:22:06.371Z,18.60
2017-08-08T02:24:35.051Z,18.60
2017-08-08T02:27:09.471Z,18.50
2017-08-08T02:29:38.157Z,18.50
2017-08-08T02:32:06.843Z,18.50
2017-08-08T02:34:35.736Z,18.50
2017-08-08T02:37:04.416Z,18.50
2017-08-08T02:39:33.103Z,18.50
2017-08-08T02:42:01.792Z,18.40
2017-08-08T02:44:30.474Z,18.40
2017-08-08T02:46:59.162Z,18.40
2017-08-08T02:49:27.844Z,18.40
2017-08-08T02:51:56.531Z,18.40
2017-08-08T02:54:26.857Z,18.40
2017-08-08T02:56:56.564Z,18.40
2017-08-08T02:59:25.249Z,18.30
2017-08-08T03:01:53.936Z,18.30
2017-08-08T03:04:22.620Z,18.30
2017-08-08T03:06:52.128Z,18.30
2017-08-08T03:09:20.811Z,18.30
2017-08-08T03:11:49.704Z,18.30
2017-08-08T03:14:18.385Z,18.30
2017-08-08T03:16:47.269Z,18.30
2017-08-08T03:19:16.178Z,18.20
2017-08-08T03:21:44.857Z,18.30
2017-08-08T03:24:13.540Z,18.30
2017-08-08T03:26:42.222Z,18.30
2017-08-08T03:29:10.911Z,18.20
2017-08-08T03:31:39.798Z,18.20
2017-08-08T03:34:08.483Z,18.20
2017-08-08T03:36:37.170Z,18.20
2017-08-08T03:39:06.011Z,18.20
2017-08-08T03:41:34.747Z,18.20
2017-08-08T03:44:03.406Z,18.20
2017-08-08T03:46:32.126Z,18.20
2017-08-08T03:49:02.655Z,18.10
2017-08-08T03:51:32.564Z,18.10
2017-08-08T03:54:03.293Z,18.10
2017-08-08T03:56:31.983Z,18.10
2017-08-08T03:59:00.671Z,18.10
2017-08-08T04:01:29.346Z,18.10
2017-08-08T04:03:58.046Z,18.10
2017-08-08T04:06:27.546Z,18.00
2017-08-08T04:08:57.044Z,18.00
2017-08-08T04:11:25.737Z,18.00
2017-08-08T04:13:55.237Z,18.00
2017-08-08T04:16:23.917Z,18.00
2017-08-08T04:18:53.626Z,18.00
2017-08-08T04:21:22.327Z,18.00
2017-08-08T04:23:51.218Z,18.00
2017-08-08T04:26:20.264Z,18.00
2017-08-08T04:28:49.392Z,18.00
2017-08-08T04:31:18.903Z,18.00
2017-08-08T04:33:47.586Z,18.00
2017-08-08T04:36:16.477Z,17.90
2017-08-08T04:38:46.388Z,17.90
2017-08-08T04:41:15.073Z,17.90
2017-08-08T04:43:43.760Z,17.90
2017-08-08T04:46:12.650Z,18.00
2017-08-08T04:48:42.160Z,18.00
2017-08-08T04:51:11.152Z,18.00
2017-08-08T04:53:39.937Z,17.90
2017-08-08T04:56:08.598Z,17.90
2017-08-08T04:58:37.310Z,17.90
2017-08-08T05:01:06.586Z,17.90
2017-08-08T05:03:36.944Z,17.90
2017-08-08T05:06:06.705Z,17.90
2017-08-08T05:08:37.054Z,17.90
2017-08-08T05:11:06.026Z,17.90
2017-08-08T05:13:34.746Z,17.90
2017-08-08T05:16:03.637Z,17.90
2017-08-08T05:18:32.909Z,17.90
2017-08-08T05:21:01.822Z,17.90
2017-08-08T05:23:30.614Z,17.90
2017-08-08T05:26:00.739Z,17.90
2017-08-08T05:28:30.863Z,17.90
2017-08-08T05:31:01.398Z,17.90
2017-08-08T05:33:31.522Z,17.90
2017-08-08T05:36:00.596Z,17.90
2017-08-08T05:38:29.289Z,17.90
2017-08-08T05:40:58.170Z,17.90
2017-08-08T05:43:27.041Z,17.90
2017-08-08T05:45:55.957Z,17.90
2017-08-08T05:48:24.988Z,17.90
2017-08-08T05:50:54.552Z,17.90
2017-08-08T05:53:23.239Z,17.90
2017-08-08T05:55:53.163Z,17.90
2017-08-08T05:58:23.472Z,17.90
2017-08-08T06:00:52.161Z,17.90
2017-08-08T06:03:20.845Z,17.90
2017-08-08T06:05:49.734Z,17.90
2017-08-08T06:08:18.832Z,17.90
2017-08-08T06:10:47.513Z,17.90
2017-08-08T06:13:17.227Z,17.90
2017-08-08T06:15:46.122Z,17.90
2017-08-08T06:18:15.004Z,18.00
2017-08-08T06:20:45.339Z,18.00
2017-08-08T06:23:15.244Z,18.00
2017-08-08T06:25:44.765Z,18.00
2017-08-08T06:28:15.013Z,18.00
2017-08-08T06:30:44.728Z,18.00
2017-08-08T06:33:14.498Z,18.00
2017-08-08T06:35:43.697Z,18.00
2017-08-08T06:38:13.739Z,18.00
2017-08-08T06:40:43.429Z,18.00
2017-08-08T06:43:13.298Z,18.10
2017-08-08T06:45:42.016Z,18.10
2017-08-08T06:48:10.912Z,18.10
2017-08-08T06:50:40.361Z,18.10
2017-08-08T06:53:09.096Z,18.20
2017-08-08T06:55:38.200Z,18.20
2017-08-08T06:58:07.288Z,18.30
2017-08-08T07:00:36.188Z,18.30
2017-08-08T07:03:05.070Z,18.40
2017-08-08T07:05:34.777Z,18.40
2017-08-08T07:08:03.458Z,18.50
2017-08-08T07:10:32.248Z,18.50
2017-08-08T07:13:00.936Z,18.60
2017-08-08T07:15:30.042Z,18.60
2017-08-08T07:18:00.620Z,18.70
2017-08-08T07:20:34.012Z,18.70
2017-08-08T07:23:04.203Z,18.70
2017-08-08T07:25:33.171Z,18.70
2017-08-08T07:28:02.396Z,18.80
2017-08-08T07:30:33.584Z,18.90
2017-08-08T07:33:03.040Z,18.90
2017-08-08T07:35:32.329Z,19.00
2017-08-08T07:38:02.174Z,19.10
2017-08-08T07:40:31.977Z,19.10
2017-08-08T07:43:02.419Z,19.10
2017-08-08T07:45:32.427Z,19.10
2017-08-08T07:48:02.996Z,19.10
2017-08-08T07:50:33.359Z,19.10
2017-08-08T07:53:03.138Z,19.10
2017-08-08T07:55:34.750Z,19.00
2017-08-08T07:58:04.778Z,19.10
2017-08-08T08:00:34.791Z,19.10
2017-08-08T08:03:04.594Z,19.10
2017-08-08T08:05:34.541Z,19.20
2017-08-08T08:08:04.872Z,19.10
2017-08-08T08:10:34.213Z,19.20
2017-08-08T08:13:03.910Z,19.20
2017-08-08T08:15:33.605Z,19.30
2017-08-08T08:18:02.501Z,19.30
2017-08-08T08:20:31.562Z,19.40
2017-08-08T08:23:00.652Z,19.40
2017-08-08T08:25:29.785Z,19.50
2017-08-08T08:27:59.702Z,19.40
2017-08-08T08:30:28.588Z,19.40
2017-08-08T08:32:58.296Z,19.50
2017-08-08T08:35:27.184Z,19.60
2017-08-08T08:37:56.899Z,19.60
2017-08-08T08:40:25.783Z,19.70
2017-08-08T08:42:55.288Z,19.70
2017-08-08T08:45:24.181Z,19.80
2017-08-08T08:47:53.492Z,20.10
2017-08-08T08:50:22.381Z,20.50
2017-08-08T08:52:51.264Z,20.60
2017-08-08T08:55:19.952Z,20.60
2017-08-08T08:57:49.038Z,20.60
2017-08-08T09:00:18.758Z,20.60
2017-08-08T09:02:48.499Z,20.60
2017-08-08T09:05:17.354Z,20.60
2017-08-08T09:07:46.246Z,20.70
2017-08-08T09:10:15.128Z,20.80
2017-08-08T09:12:44.022Z,20.80
2017-08-08T09:15:13.107Z,21.10
2017-08-08T09:17:42.421Z,21.30
2017-08-08T09:20:11.307Z,21.40
2017-08-08T09:22:40.004Z,21.40
2017-08-08T09:25:08.886Z,21.50
2017-08-08T09:27:37.785Z,21.60
2017-08-08T09:30:06.665Z,21.90
2017-08-08T09:32:35.346Z,21.80
2017-08-08T09:35:04.038Z,21.60
2017-08-08T09:37:33.945Z,21.60
2017-08-08T09:40:03.456Z,21.60
2017-08-08T09:42:32.557Z,21.60
2017-08-08T09:45:01.442Z,21.50
2017-08-08T09:47:31.251Z,21.50
2017-08-08T09:50:02.369Z,21.50
2017-08-08T09:52:31.753Z,21.60
2017-08-08T09:55:01.621Z,21.60
2017-08-08T09:57:30.571Z,21.70
2017-08-08T09:59:59.730Z,21.60
2017-08-08T10:02:28.594Z,21.60
2017-08-08T10:04:57.271Z,21.60
2017-08-08T10:07:26.776Z,21.60
2017-08-08T10:09:56.496Z,21.50
2017-08-08T10:12:25.379Z,21.50
2017-08-08T10:14:54.280Z,21.40
2017-08-08T10:17:22.947Z,21.50
2017-08-08T10:19:51.641Z,21.50
2017-08-08T10:22:21.143Z,21.50
2017-08-08T10:24:50.010Z,21.50
2017-08-08T10:27:18.730Z,21.50
2017-08-08T10:29:47.606Z,21.60
2017-08-08T10:32:16.299Z,21.70
2017-08-08T10:34:45.603Z,21.70
2017-08-08T10:37:14.483Z,21.70
2017-08-08T10:39:43.171Z,21.70
2017-08-08T10:42:11.853Z,21.60
2017-08-08T10:44:40.747Z,21.60
2017-08-08T10:47:09.638Z,21.60
2017-08-08T10:49:38.331Z,21.50
2017-08-08T10:52:07.623Z,21.50
2017-08-08T10:54:36.525Z,21.50
2017-08-08T10:57:05.196Z,21.50
2017-08-08T10:59:34.093Z,21.40
2017-08-08T11:02:02.785Z,21.40
2017-08-08T11:04:31.676Z,21.40
2017-08-08T11:07:01.374Z,21.40
2017-08-08T11:09:30.265Z,21.40
2017-08-08T11:11:59.372Z,21.40
2017-08-08T11:14:28.255Z,21.50
2017-08-08T11:16:58.506Z,21.60
2017-08-08T11:19:28.576Z,21.90
2017-08-08T11:21:58.855Z,22.50
2017-08-08T11:24:29.801Z,23.00
2017-08-08T11:27:00.065Z,23.20
2017-08-08T11:29:30.535Z,23.40
2017-08-08T11:31:59.845Z,23.50
2017-08-08T11:34:29.701Z,23.50
2017-08-08T11:37:00.433Z,23.60
2017-08-08T11:39:30.666Z,23.60
2017-08-08T11:42:01.200Z,23.60
2017-08-08T11:44:31.774Z,23.60
2017-08-08T11:47:02.181Z,23.60
2017-08-08T11:49:33.426Z,23.70
2017-08-08T11:52:03.803Z,23.60
2017-08-08T11:54:34.337Z,23.60
2017-08-08T11:57:04.652Z,23.60
2017-08-08T11:59:35.181Z,23.60
2017-08-08T12:02:05.773Z,23.60
2017-08-08T12:04:36.229Z,23.60
2017-08-08T12:07:07.365Z,23.60
2017-08-08T12:09:37.880Z,23.60
2017-08-08T12:12:08.390Z,23.60
2017-08-08T12:14:39.977Z,23.50
2017-08-08T12:17:10.942Z,23.50
2017-08-08T12:19:41.263Z,23.50
2017-08-08T12:22:11.993Z,23.50
2017-08-08T12:24:42.999Z,23.50
2017-08-08T12:27:13.663Z,23.50
2017-08-08T12:29:48.717Z,23.60
2017-08-08T12:32:19.132Z,23.60
2017-08-08T12:34:50.331Z,23.60
2017-08-08T12:37:20.966Z,23.60
2017-08-08T12:39:52.968Z,23.50
2017-08-08T12:42:23.352Z,23.50
2017-08-08T12:44:53.842Z,23.10
2017-08-08T12:47:24.282Z,22.80
2017-08-08T12:49:54.698Z,23.00
2017-08-08T12:52:25.742Z,23.20
2017-08-08T12:54:56.307Z,23.30
2017-08-08T12:57:28.291Z,23.40
2017-08-08T12:59:58.710Z,23.50
2017-08-08T13:02:29.070Z,23.50
2017-08-08T13:05:01.323Z,23.50
2017-08-08T13:07:32.457Z,23.50
2017-08-08T13:10:03.535Z,23.50
2017-08-08T13:12:34.038Z,23.50
2017-08-08T13:15:04.537Z,23.50
2017-08-08T13:17:35.569Z,23.50
2017-08-08T13:20:06.169Z,23.50
2017-08-08T13:22:38.082Z,23.50
2017-08-08T13:25:08.663Z,23.50
2017-08-08T13:27:39.720Z,23.50
2017-08-08T13:30:11.649Z,23.50
2017-08-08T13:32:42.636Z,23.40
2017-08-08T13:35:13.844Z,23.40
2017-08-08T13:37:44.461Z,23.40
2017-08-08T13:40:16.471Z,23.40
2017-08-08T13:42:46.997Z,23.40
2017-08-08T13:45:17.594Z,23.40
2017-08-08T13:47:49.049Z,23.40
2017-08-08T13:50:20.027Z,23.40
2017-08-08T13:52:51.030Z,23.40
2017-08-08T13:55:22.174Z,23.40
2017-08-08T13:57:53.579Z,23.30
2017-08-08T14:00:24.429Z,23.30
2017-08-08T14:02:54.785Z,23.30
2017-08-08T14:05:26.793Z,23.30
2017-08-08T14:07:57.599Z,23.30
2017-08-08T14:10:28.796Z,23.30
2017-08-08T14:12:59.830Z,23.20
2017-08-08T14:15:30.786Z,23.20
2017-08-08T14:18:02.128Z,23.20
2017-08-08T14:20:34.095Z,23.20
2017-08-08T14:23:06.305Z,23.20
2017-08-08T14:25:37.179Z,23.20
2017-08-08T14:28:08.939Z,23.20
2017-08-08T14:30:40.022Z,23.20
2017-08-08T14:33:11.788Z,23.20
2017-08-08T14:35:44.181Z,23.20
2017-08-08T14:38:14.775Z,23.20
2017-08-08T14:40:45.473Z,23.20
2017-08-08T14:43:16.086Z,23.20
2017-08-08T14:45:47.596Z,23.10
2017-08-08T14:48:17.995Z,23.10
2017-08-08T14:50:48.141Z,23.10
2017-08-08T14:53:19.483Z,23.10
2017-08-08T14:55:49.778Z,23.10
2017-08-08T14:58:20.286Z,23.10
2017-08-08T15:00:50.821Z,23.10
2017-08-08T15:03:22.101Z,23.10
2017-08-08T15:05:52.443Z,23.00
2017-08-08T15:08:24.574Z,23.00
2017-08-08T15:10:55.123Z,23.00
2017-08-08T15:13:25.889Z,23.00
2017-08-08T15:15:56.397Z,22.90
2017-08-08T15:18:26.831Z,23.00
2017-08-08T15:20:57.121Z,22.90
2017-08-08T15:23:27.495Z,22.90
2017-08-08T15:25:58.284Z,22.90
2017-08-08T15:28:28.387Z,22.90
2017-08-08T15:30:58.785Z,22.90
2017-08-08T15:33:33.011Z,22.90
2017-08-08T15:36:03.431Z,22.90
2017-08-08T15:38:34.327Z,22.80
2017-08-08T15:41:04.792Z,22.80
2017-08-08T15:43:35.846Z,22.80
2017-08-08T15:46:06.598Z,22.80
2017-08-08T15:48:36.906Z,22.80
2017-08-08T15:51:07.224Z,22.80
2017-08-08T15:53:37.669Z,22.70
2017-08-08T15:56:09.089Z,22.70
2017-08-08T15:58:40.093Z,22.70
2017-08-08T16:01:10.953Z,22.60
2017-08-08T16:03:41.516Z,22.60
2017-08-08T16:06:12.196Z,22.60
2017-08-08T16:08:43.118Z,22.60
2017-08-08T16:11:13.602Z,22.60
2017-08-08T16:13:44.017Z,22.50
2017-08-08T16:16:14.413Z,22.50
2017-08-08T16:18:44.949Z,22.50
2017-08-08T16:21:15.535Z,22.50
2017-08-08T16:23:47.489Z,22.50
2017-08-08T16:26:17.875Z,22.40
2017-08-08T16:28:48.280Z,22.40
2017-08-08T16:31:20.185Z,22.40
2017-08-08T16:33:51.051Z,22.40
2017-08-08T16:36:21.364Z,22.30
2017-08-08T16:38:51.773Z,22.30
2017-08-08T16:41:21.378Z,22.30
2017-08-08T16:43:52.029Z,22.30
2017-08-08T16:46:22.041Z,22.30
2017-08-08T16:48:52.107Z,22.30
2017-08-08T16:51:22.887Z,22.30
2017-08-08T16:53:53.740Z,22.30
2017-08-08T16:56:24.355Z,22.30
2017-08-08T16:58:54.304Z,22.20
2017-08-08T17:01:24.155Z,22.20
2017-08-08T17:03:54.100Z,22.20
2017-08-08T17:06:23.687Z,22.10
2017-08-08T17:08:53.306Z,22.10
2017-08-08T17:11:24.938Z,22.10
2017-08-08T17:13:55.254Z,22.10
2017-08-08T17:16:26.788Z,22.10
2017-08-08T17:18:56.715Z,22.10
2017-08-08T17:21:26.221Z,22.10
2017-08-08T17:23:55.108Z,22.10
2017-08-08T17:26:24.196Z,22.00
2017-08-08T17:28:53.088Z,22.00
2017-08-08T17:31:22.192Z,22.00
2017-08-08T17:33:52.080Z,22.00
2017-08-08T17:36:21.007Z,22.00
2017-08-08T17:38:49.886Z,22.00
2017-08-08T17:41:18.779Z,22.00
2017-08-08T17:43:47.661Z,21.90
2017-08-08T17:46:16.342Z,21.90
2017-08-08T17:48:45.238Z,21.90
2017-08-08T17:51:14.124Z,21.90
2017-08-08T17:53:43.010Z,21.90
2017-08-08T17:56:11.920Z,21.90
2017-08-08T17:58:41.619Z,21.90
2017-08-08T18:01:10.300Z,21.90
2017-08-08T18:03:40.006Z,21.80
2017-08-08T18:06:09.103Z,21.80
2017-08-08T18:08:38.411Z,21.80
2017-08-08T18:11:07.298Z,21.80
2017-08-08T18:13:36.798Z,21.80
2017-08-08T18:16:05.688Z,21.80
2017-08-08T18:18:34.576Z,21.70
2017-08-08T18:21:04.301Z,21.70
2017-08-08T18:23:33.183Z,21.70
2017-08-08T18:26:02.492Z,21.70
2017-08-08T18:28:31.577Z,21.70
2017-08-08T18:31:00.469Z,21.60
2017-08-08T18:33:29.354Z,21.60
2017-08-08T18:35:58.255Z,21.60
2017-08-08T18:38:27.958Z,21.60
2017-08-08T18:40:57.473Z,21.60
2017-08-08T18:43:26.356Z,21.60
2017-08-08T18:45:55.040Z,21.60
2017-08-08T18:48:23.925Z,21.60
2017-08-08T18:50:52.823Z,21.60
2017-08-08T18:53:22.523Z,21.50
2017-08-08T18:55:51.212Z,21.50
2017-08-08T18:58:20.101Z,21.50
2017-08-08T19:00:49.203Z,21.50
2017-08-08T19:03:18.298Z,21.50
2017-08-08T19:05:48.001Z,21.50
2017-08-08T19:08:16.899Z,21.50
2017-08-08T19:10:46.605Z,21.50
2017-08-08T19:13:15.703Z,21.40
2017-08-08T19:15:44.801Z,21.40
2017-08-08T19:18:13.889Z,21.40
2017-08-08T19:20:43.553Z,21.40
2017-08-08T19:23:12.283Z,21.40
2017-08-08T19:25:41.173Z,21.40
2017-08-08T19:28:10.265Z,21.40
2017-08-08T19:30:39.325Z,21.40
2017-08-08T19:33:08.046Z,21.30
2017-08-08T19:35:36.731Z,21.40
2017-08-08T19:38:05.628Z,21.30
2017-08-08T19:40:34.485Z,21.30
2017-08-08T19:43:04.224Z,21.30
2017-08-08T19:45:32.907Z,21.30
2017-08-08T19:48:01.799Z,21.30
2017-08-08T19:50:30.692Z,21.20
2017-08-08T19:52:59.385Z,21.20
2017-08-08T19:55:28.268Z,21.20
2017-08-08T19:57:56.955Z,21.20
2017-08-08T20:00:26.252Z,21.20
2017-08-08T20:02:55.958Z,21.20
2017-08-08T20:05:26.488Z,21.20
2017-08-08T20:07:55.771Z,21.10
2017-08-08T20:10:25.502Z,21.20
2017-08-08T20:12:54.388Z,21.10
2017-08-08T20:15:23.080Z,21.10
2017-08-08T20:17:51.970Z,21.10
2017-08-08T20:20:20.857Z,21.10
2017-08-08T20:22:50.566Z,21.10
2017-08-08T20:25:19.434Z,21.10
2017-08-08T20:27:48.504Z,21.10
2017-08-08T20:30:17.237Z,21.10
2017-08-08T20:32:46.125Z,21.00
2017-08-08T20:35:14.812Z,21.00
2017-08-08T20:37:44.114Z,21.00
2017-08-08T20:40:13.826Z,21.00
2017-08-08T20:42:42.506Z,21.00
2017-08-08T20:45:11.401Z,20.90
2017-08-08T20:47:40.086Z,21.00
2017-08-08T20:50:08.767Z,20.90
2017-08-08T20:52:37.658Z,20.90
2017-08-08T20:55:06.548Z,20.90
2017-08-08T20:57:35.437Z,20.80
2017-08-08T21:00:04.332Z,20.80
2017-08-08T21:02:33.021Z,20.80
2017-08-08T21:05:03.591Z,20.80
2017-08-08T21:07:32.640Z,20.70
2017-08-08T21:10:01.322Z,20.70
2017-08-08T21:12:30.624Z,20.70
2017-08-08T21:14:59.317Z,20.80
2017-08-08T21:17:29.025Z,20.70
2017-08-08T21:19:57.702Z,20.80
2017-08-08T21:22:26.389Z,20.70
2017-08-08T21:24:55.281Z,20.70
2017-08-08T21:27:24.171Z,20.70
2017-08-08T21:29:52.855Z,20.70
2017-08-08T21:32:21.542Z,20.70
2017-08-08T21:34:50.228Z,20.70
2017-08-08T21:37:18.915Z,20.60
2017-08-08T21:39:47.601Z,20.60
2017-08-08T21:42:16.490Z,20.60
2017-08-08T21:44:45.180Z,20.60
2017-08-08T21:47:13.861Z,20.60
2017-08-08T21:49:42.751Z,20.60
2017-08-08T21:52:11.644Z,20.60
2017-08-08T21:54:40.532Z,20.60
2017-08-08T21:57:09.423Z,20.50
2017-08-08T21:59:38.930Z,20.50
2017-08-08T22:02:07.820Z,20.50
2017-08-08T22:04:36.704Z,20.50
2017-08-08T22:07:05.394Z,20.50
2017-08-08T22:09:34.079Z,20.50
2017-08-08T22:12:02.967Z,20.40
2017-08-08T22:14:31.656Z,20.40
2017-08-08T22:17:00.342Z,20.40
2017-08-08T22:19:29.023Z,20.40
2017-08-08T22:21:57.718Z,20.40
2017-08-08T22:24:26.399Z,20.40
2017-08-08T22:26:55.092Z,20.40
2017-08-08T22:29:23.769Z,20.40
2017-08-08T22:31:52.449Z,20.40
2017-08-08T22:34:21.962Z,20.30
2017-08-08T22:36:50.641Z,20.30
2017-08-08T22:39:19.330Z,20.30
2017-08-08T22:41:48.221Z,20.30
2017-08-08T22:44:17.930Z,20.30
2017-08-08T22:46:46.613Z,20.30
2017-08-08T22:49:15.310Z,20.30
2017-08-08T22:51:43.983Z,20.20
2017-08-08T22:54:12.668Z,20.20
2017-08-08T22:56:41.362Z,20.20
2017-08-08T22:59:10.040Z,20.20
2017-08-08T23:01:38.726Z,20.20
2017-08-08T23:04:08.231Z,20.10
2017-08-08T23:06:36.927Z,20.10
2017-08-08T23:09:05.571Z,20.10
2017-08-08T23:11:34.445Z,20.10
2017-08-08T23:14:03.189Z,20.10
2017-08-08T23:16:31.862Z,20.10
2017-08-08T23:19:00.548Z,20.10
2017-08-08T23:21:29.437Z,20.10
2017-08-08T23:23:58.123Z,20.10
2017-08-08T23:26:26.814Z,20.10
2017-08-08T23:28:55.498Z,20.00
2017-08-08T23:31:24.180Z,20.00
2017-08-08T23:33:52.867Z,20.00
2017-08-08T23:36:21.552Z,20.00
2017-08-08T23:38:50.238Z,20.00
2017-08-08T23:41:18.921Z,20.00
2017-08-08T23:43:47.612Z,19.90
2017-08-08T23:46:16.295Z,19.90
2017-08-08T23:48:45.192Z,19.90
2017-08-08T23:51:14.650Z,19.90
2017-08-08T23:53:43.538Z,19.90
2017-08-08T23:56:12.266Z,19.80
2017-08-08T23:58:40.949Z,19.80
